Time;durP1;ratioP1;P1;durP2;ratioP2;P2;SDS_P1;SDS_P2;PMS_P1;PMS_P2;Temp;Humidity;BMP_temperature;BMP_pressure;BME280_temperature;BME280_humidity;BME280_pressure;Samples;Min_cycle;Max_cycle;Signal;HPM_P1;HPM_P2
2022/06/04 00:01:54;;;;;;;;;26.50;24.25;;;;;19.58;64.85;101167.19;5067253;28;45625;-91
2022/06/04 00:04:31;;;;;;;;;22.00;20.75;;;;;19.58;64.60;101176.06;5081891;28;47362;-91
2022/06/04 00:07:20;;;;;;;;;;;;;;;;;;;;;
2022/06/04 00:15:39;;;;;;;;;;;;;;;;;;;;;
2022/06/04 00:18:45;;;;;;;;;26.50;25.50;;;;;19.42;65.25;101172.19;5060575;28;71870;-93
2022/06/04 00:21:21;;;;;;;;;25.25;23.50;;;;;19.39;65.32;101172.28;5080738;28;45419;-93
2022/06/04 00:24:12;;;;;;;;;23.75;22.25;;;;;19.37;65.26;101169.66;5069414;28;44862;-91
2022/06/04 00:26:52;;;;;;;;;;;;;;;;;;;;;
2022/06/04 00:30:07;;;;;;;;;;;;;;;;;;;;;
2022/06/04 00:36:31;;;;;;;;;;;;;;;;;;;;;
2022/06/04 00:39:55;;;;;;;;;;;;;;;;;;;;;
2022/06/04 00:43:42;;;;;;;;;24.00;22.50;;;;;19.25;65.78;101174.56;5059908;28;45222;-92
2022/06/04 00:46:18;;;;;;;;;28.00;26.25;;;;;19.21;65.52;101165.75;5047661;28;45549;-92
2022/06/04 00:49:34;;;;;;;;;;;;;;;;;;;;;
2022/06/04 00:52:39;;;;;;;;;;;;;;;;;;;;;
2022/06/04 00:55:39;;;;;;;;;28.00;25.25;;;;;19.13;65.64;101139.31;5079653;28;71963;-91
2022/06/04 00:58:29;;;;;;;;;26.75;25.25;;;;;19.13;65.73;101131.31;5076670;28;45276;-90
2022/06/04 01:01:32;;;;;;;;;26.25;24.50;;;;;19.12;66.20;101120.69;5063168;28;44796;-91
2022/06/04 01:04:47;;;;;;;;;27.50;27.00;;;;;19.11;65.82;101132.28;5075128;28;47203;-92
2022/06/04 01:07:42;;;;;;;;;30.25;25.00;;;;;19.10;65.77;101144.75;5085321;28;44765;-91
2022/06/04 01:10:43;;;;;;;;;;;;;;;;;;;;;
2022/06/04 01:13:54;;;;;;;;;28.75;27.00;;;;;19.08;65.75;101138.59;5071151;28;70943;-92
2022/06/04 01:16:58;;;;;;;;;28.00;27.75;;;;;19.07;65.81;101125.31;5011967;28;48373;-91
2022/06/04 01:19:59;;;;;;;;;;;;;;;;;;;;;
2022/06/04 01:22:56;;;;;;;;;;;;;;;;;;;;;
2022/06/04 01:25:47;;;;;;;;;;;;;;;;;;;;;
2022/06/04 01:28:25;;;;;;;;;23.75;23.75;;;;;19.10;66.33;101117.19;5061543;28;74510;-91
2022/06/04 01:31:21;;;;;;;;;29.25;26.25;;;;;19.12;66.23;101110.88;5060766;28;45284;-91
2022/06/04 01:34:10;;;;;;;;;24.00;21.75;;;;;19.13;65.68;101107.28;5080795;28;45202;-92
2022/06/04 01:37:16;;;;;;;;;30.75;29.25;;;;;19.14;65.73;101097.50;5066947;28;45717;-91
2022/06/04 01:42:48;;;;;;;;;;;;;;;;;;;;;
2022/06/04 01:45:22;;;;;;;;;28.75;27.50;;;;;19.14;65.54;101085.03;5080846;28;67571;-90
2022/06/04 01:47:53;;;;;;;;;24.00;23.75;;;;;19.15;65.70;101089.44;5057203;28;45437;-91
2022/06/04 01:50:23;;;;;;;;;28.00;28.00;;;;;19.15;65.81;101085.91;5060306;28;47609;-91
2022/06/04 01:52:51;;;;;;;;;28.50;27.50;;;;;19.15;65.60;101084.09;5048764;28;45213;-91
2022/06/04 01:55:27;;;;;;;;;28.75;26.75;;;;;19.15;65.76;101092.09;5059353;28;45241;-90
2022/06/04 01:58:23;;;;;;;;;28.25;26.50;;;;;19.12;65.88;101089.53;5046503;28;45537;-91
2022/06/04 02:00:58;;;;;;;;;26.75;23.25;;;;;19.10;65.68;101099.38;5054290;28;46932;-90
2022/06/04 02:03:31;;;;;;;;;28.75;28.25;;;;;19.08;66.08;101103.91;5052103;28;45712;-91
2022/06/04 02:06:05;;;;;;;;;28.25;27.00;;;;;19.08;66.10;101106.56;5081363;28;45360;-91
2022/06/04 02:09:04;;;;;;;;;;;;;;;;;;;;;
2022/06/04 02:11:51;;;;;;;;;;;;;;;;;;;;;
2022/06/04 02:14:38;;;;;;;;;;;;;;;;;;;;;
2022/06/04 02:17:34;;;;;;;;;25.50;24.50;;;;;19.11;66.00;101118.94;5078688;28;67761;-90
2022/06/04 02:20:20;;;;;;;;;24.00;23.00;;;;;19.14;65.87;101125.06;5054076;28;44828;-92
2022/06/04 02:22:46;;;;;;;;;23.75;22.50;;;;;19.17;65.83;101129.44;5079165;28;46888;-91
2022/06/04 02:25:22;;;;;;;;;27.00;23.75;;;;;19.20;65.65;101133.78;5088528;27;45192;-89
2022/06/04 02:28:10;;;;;;;;;;;;;;;;;;;;;
2022/06/04 02:30:53;;;;;;;;;23.75;23.75;;;;;19.24;66.07;101098.03;5098404;27;71813;-92
2022/06/04 02:33:42;;;;;;;;;18.00;15.25;;;;;19.27;65.87;101084.59;5077556;28;47400;-92
2022/06/04 02:36:33;;;;;;;;;23.25;22.25;;;;;19.28;65.81;101078.34;5069924;28;45446;-91
2022/06/04 02:39:20;;;;;;;;;26.50;26.00;;;;;19.30;65.84;101087.16;5067034;28;45443;-93
2022/06/04 02:42:06;;;;;;;;;;;;;;;;;;;;;
2022/06/04 02:45:16;;;;;;;;;;;;;;;;;;;;;
2022/06/04 02:48:32;;;;;;;;;;;;;;;;;;;;;
2022/06/04 02:51:07;;;;;;;;;22.50;21.00;;;;;19.27;65.69;101082.81;5032694;28;68812;-90
2022/06/04 02:53:44;;;;;;;;;;;;;;;;;;;;;
2022/06/04 02:56:25;;;;;;;;;29.50;24.50;;;;;19.22;65.64;101046.50;5085945;28;73983;-89
2022/06/04 02:59:06;;;;;;;;;;;;;;;;;;;;;
2022/06/04 03:01:39;;;;;;;;;26.50;26.50;;;;;19.22;65.63;101052.75;5080333;28;67757;-90
2022/06/04 03:04:06;;;;;;;;;26.00;26.00;;;;;19.18;65.50;101038.59;5066890;28;45449;-89
2022/06/04 03:06:52;;;;;;;;;23.75;23.00;;;;;19.16;66.21;101037.81;5052953;28;46769;-89
2022/06/04 03:09:29;;;;;;;;;22.75;22.75;;;;;19.18;65.74;101035.06;5068437;28;45413;-89
2022/06/04 03:12:06;;;;;;;;;25.00;23.75;;;;;19.18;66.28;101043.94;5047529;28;45264;-89
2022/06/04 03:14:40;;;;;;;;;29.00;27.25;;;;;19.17;66.12;101047.56;5060373;28;45254;-89
2022/06/04 03:17:13;;;;;;;;;26.25;25.25;;;;;19.18;65.87;101043.06;5058632;28;48119;-90
2022/06/04 03:19:44;;;;;;;;;25.00;23.50;;;;;19.20;65.93;101043.91;5059996;28;45741;-90
2022/06/04 03:22:17;;;;;;;;;24.25;23.75;;;;;19.20;65.84;101043.91;5079202;28;45495;-89
2022/06/04 03:25:33;;;;;;;;;;;;;;;;;;;;;
2022/06/04 03:31:20;;;;;;;;;27.50;26.75;;;;;19.16;66.12;101043.16;5055573;28;45413;-89
2022/06/04 03:34:19;;;;;;;;;;;;;;;;;;;;;
2022/06/04 03:36:52;;;;;;;;;24.00;23.50;;;;;19.15;66.06;101032.50;5065898;28;71740;-88
2022/06/04 03:39:30;;;;;;;;;;;;;;;;;;;;;
2022/06/04 03:42:04;;;;;;;;;26.25;25.25;;;;;19.16;66.54;101050.25;5076450;28;72345;-91
2022/06/04 03:44:29;;;;;;;;;29.25;27.00;;;;;19.16;66.51;101061.84;5059177;28;45410;-90
2022/06/04 03:47:26;;;;;;;;;;;;;;;;;;;;;
2022/06/04 03:50:04;;;;;;;;;;;;;;;;;;;;;
2022/06/04 03:52:49;;;;;;;;;;;;;;;;;;;;;
2022/06/04 03:55:35;;;;;;;;;;;;;;;;;;;;;
2022/06/04 03:58:31;;;;;;;;;;;;;;;;;;;;;
2022/06/04 04:12:00;;;;;;;;;24.25;23.75;;;;;19.22;66.28;101070.53;4933784;28;45497;-89
2022/06/04 04:14:49;;;;;;;;;;;;;;;;;;;;;
2022/06/04 04:17:36;;;;;;;;;;;;;;;;;;;;;
2022/06/04 04:20:53;;;;;;;;;;;;;;;;;;;;;
2022/06/04 04:23:59;;;;;;;;;;;;;;;;;;;;;
2022/06/04 04:27:19;;;;;;;;;;;;;;;;;;;;;
2022/06/04 04:30:34;;;;;;;;;;;;;;;;;;;;;
2022/06/04 04:33:26;;;;;;;;;28.00;26.75;;;;;19.22;66.29;101138.16;5073448;28;68885;-88
2022/06/04 04:36:29;;;;;;;;;;;;;;;;;;;;;
2022/06/04 04:39:03;;;;;;;;;26.50;26.50;;;;;19.22;66.09;101132.81;5075059;28;74039;-89
2022/06/04 04:41:42;;;;;;;;;;;;;;;;;;;;;
2022/06/04 04:44:53;;;;;;;;;21.50;20.25;;;;;19.25;66.40;101153.19;5061878;28;67632;-90
2022/06/04 04:47:19;;;;;;;;;24.25;23.00;;;;;19.26;66.43;101141.59;5046685;28;45663;-87
2022/06/04 04:49:56;;;;;;;;;23.50;23.50;;;;;19.27;66.39;101129.97;5051089;28;47008;-88
2022/06/04 04:52:58;;;;;;;;;;;;;;;;;;;;;
2022/06/04 04:56:00;;;;;;;;;26.75;25.50;;;;;19.31;66.11;101151.19;5038167;28;69220;-90
2022/06/04 04:58:47;;;;;;;;;26.00;25.25;;;;;19.32;66.47;101176.94;5081106;28;45568;-90
2022/06/04 05:01:28;;;;;;;;;28.00;26.50;;;;;19.35;66.18;101197.34;5065710;28;47682;-91
2022/06/04 05:03:55;;;;;;;;;29.25;26.00;;;;;19.39;66.54;101217.69;5083102;28;45373;-85
2022/06/04 05:06:22;;;;;;;;;24.50;23.75;;;;;19.42;66.54;101198.88;5070304;28;45331;-85
2022/06/04 05:08:49;;;;;;;;;22.00;20.00;;;;;19.45;66.38;101166.75;5071932;28;45371;-86
2022/06/04 05:11:19;;;;;;;;;23.75;23.75;;;;;19.47;66.18;101153.34;5062774;28;45416;-84
2022/06/04 05:13:49;;;;;;;;;24.50;22.25;;;;;19.51;66.32;101155.88;5079205;28;45477;-82
2022/06/04 05:16:29;;;;;;;;;27.75;24.00;;;;;19.55;66.21;101157.50;5044779;28;45344;-82
2022/06/04 05:18:55;;;;;;;;;25.50;23.00;;;;;19.57;66.37;101160.13;5046460;28;45438;-82
2022/06/04 05:21:25;;;;;;;;;25.50;25.25;;;;;19.59;66.40;101148.47;5062695;28;46018;-82
2022/06/04 05:23:54;;;;;;;;;18.75;18.50;;;;;19.57;66.16;101144.97;5077084;28;45231;-81
2022/06/04 05:26:20;;;;;;;;;21.50;20.25;;;;;19.60;66.42;101146.66;5082991;28;45441;-81
2022/06/04 05:28:48;;;;;;;;;20.75;19.50;;;;;19.64;65.93;101129.59;5068233;28;45430;-82
2022/06/04 05:31:14;;;;;;;;;20.75;18.50;;;;;19.69;65.90;101132.13;5052176;28;47744;-82
2022/06/04 05:33:39;;;;;;;;;27.00;24.50;;;;;19.73;66.10;101129.31;5062504;28;45473;-82
2022/06/04 05:36:05;;;;;;;;;23.25;22.75;;;;;19.81;65.77;101124.56;5075218;28;45350;-85
2022/06/04 05:38:34;;;;;;;;;23.25;20.50;;;;;19.83;66.00;101114.69;5044486;28;45532;-83
2022/06/04 05:41:03;;;;;;;;;24.75;24.00;;;;;19.85;65.80;101114.63;5053278;28;46974;-84
2022/06/04 05:43:28;;;;;;;;;21.25;19.25;;;;;19.91;65.91;101132.22;5080158;28;45436;-87
2022/06/04 05:46:03;;;;;;;;;24.00;24.00;;;;;19.95;65.78;101124.06;5054339;28;45287;-87
2022/06/04 05:48:29;;;;;;;;;24.25;23.75;;;;;20.01;65.39;101115.81;5077715;28;45409;-87
2022/06/04 05:50:56;;;;;;;;;20.00;20.00;;;;;20.03;65.34;101107.75;5054811;28;47277;-85
2022/06/04 05:53:22;;;;;;;;;25.25;22.50;;;;;20.06;65.29;101112.97;5048240;28;45277;-85
2022/06/04 05:55:49;;;;;;;;;24.75;21.75;;;;;20.07;65.60;101116.50;5082761;28;45430;-84
2022/06/04 05:58:14;;;;;;;;;24.00;21.25;;;;;20.06;65.35;101120.97;5067269;28;46220;-84
2022/06/04 06:00:40;;;;;;;;;23.00;21.50;;;;;20.05;65.02;101156.69;5071687;28;45965;-85
2022/06/04 06:03:05;;;;;;;;;21.00;21.00;;;;;20.04;64.92;101190.53;5061814;28;45328;-84
2022/06/04 06:05:32;;;;;;;;;26.25;22.00;;;;;20.03;65.09;101231.56;5062218;28;45442;-84
2022/06/04 06:07:58;;;;;;;;;20.25;19.75;;;;;20.02;64.89;101247.63;5057301;28;45782;-85
2022/06/04 06:10:23;;;;;;;;;24.25;21.75;;;;;19.98;65.08;101233.50;5072701;28;45576;-84
2022/06/04 06:12:48;;;;;;;;;23.75;22.75;;;;;19.96;65.05;101211.31;5063804;28;45373;-86
2022/06/04 06:15:14;;;;;;;;;18.25;18.00;;;;;19.94;65.20;101206.94;5069714;28;45477;-84
2022/06/04 06:17:40;;;;;;;;;22.75;20.25;;;;;19.93;65.45;101203.41;5075210;28;45161;-82
2022/06/04 06:20:07;;;;;;;;;23.00;21.75;;;;;19.94;65.28;101204.28;5053287;28;46313;-83
2022/06/04 06:22:33;;;;;;;;;23.25;22.25;;;;;19.92;65.62;101211.50;5050865;28;46118;-83
2022/06/04 06:24:58;;;;;;;;;27.50;23.00;;;;;19.93;65.39;101218.56;5082196;28;45227;-82
2022/06/04 06:27:24;;;;;;;;;23.75;23.25;;;;;19.93;65.55;101215.91;5063289;28;45701;-82
2022/06/04 06:29:50;;;;;;;;;24.00;23.75;;;;;19.94;65.34;101218.53;5053602;28;48337;-82
2022/06/04 06:32:15;;;;;;;;;23.25;21.50;;;;;19.96;65.59;101222.00;5061240;28;45412;-83
2022/06/04 06:34:41;;;;;;;;;24.75;23.75;;;;;19.92;65.31;101231.06;5060477;28;45366;-82
2022/06/04 06:37:06;;;;;;;;;21.25;20.50;;;;;19.92;65.14;101240.91;5043697;28;45312;-83
2022/06/04 06:39:32;;;;;;;;;22.75;22.75;;;;;19.92;65.39;101227.53;5062137;28;45366;-85
2022/06/04 06:41:57;;;;;;;;;27.25;22.75;;;;;19.93;65.38;101221.25;5061781;28;45387;-82
2022/06/04 06:44:23;;;;;;;;;23.75;21.75;;;;;19.93;65.74;101230.13;5043642;28;45482;-82
2022/06/04 06:46:49;;;;;;;;;25.25;22.75;;;;;19.95;65.28;101240.78;5043167;28;45576;-83
2022/06/04 06:49:23;;;;;;;;;21.00;19.00;;;;;19.94;65.14;101249.69;5054072;28;46702;-82
2022/06/04 06:51:57;;;;;;;;;21.50;20.50;;;;;19.91;65.67;101253.34;5049733;28;45783;-83
2022/06/04 06:54:25;;;;;;;;;23.75;22.50;;;;;19.91;65.50;101239.13;5076783;28;45322;-84
2022/06/04 06:56:52;;;;;;;;;24.00;24.00;;;;;19.93;65.52;101251.50;5061352;28;45468;-84
2022/06/04 06:59:20;;;;;;;;;26.00;22.75;;;;;19.98;65.79;101233.50;5056167;28;46825;-85
2022/06/04 07:01:51;;;;;;;;;25.75;24.25;;;;;20.03;65.88;101233.38;5061093;28;45342;-85
2022/06/04 07:04:18;;;;;;;;;20.50;19.50;;;;;20.07;65.29;101221.63;5074623;28;45290;-85
2022/06/04 07:06:45;;;;;;;;;26.75;25.00;;;;;20.13;65.66;101201.81;5051546;28;45461;-86
2022/06/04 07:09:19;;;;;;;;;23.00;22.00;;;;;20.16;65.56;101210.63;5076297;28;48283;-87
2022/06/04 07:11:44;;;;;;;;;23.25;22.00;;;;;20.20;65.43;101212.22;5060878;28;45466;-84
2022/06/04 07:14:11;;;;;;;;;26.50;25.25;;;;;20.25;65.17;101198.69;5077355;28;45433;-84
2022/06/04 07:16:40;;;;;;;;;24.25;23.25;;;;;20.28;65.18;101198.59;5060726;28;45541;-83
2022/06/04 07:19:06;;;;;;;;;26.00;24.00;;;;;20.30;65.15;101210.09;5056644;28;46698;-84
2022/06/04 07:21:34;;;;;;;;;19.75;19.75;;;;;20.28;65.08;101214.63;5059492;28;45379;-84
2022/06/04 07:24:00;;;;;;;;;23.25;23.25;;;;;20.27;64.75;101211.09;5058246;28;45448;-84
2022/06/04 07:26:29;;;;;;;;;28.75;24.75;;;;;20.31;65.25;101193.13;5072330;28;45632;-83
2022/06/04 07:28:55;;;;;;;;;24.75;24.75;;;;;20.31;65.46;101176.22;5076072;28;46138;-84
2022/06/04 07:31:22;;;;;;;;;28.75;24.75;;;;;20.31;65.45;101179.75;5058846;28;45271;-84
2022/06/04 07:33:49;;;;;;;;;23.00;20.25;;;;;20.33;65.36;101206.44;5044745;28;45866;-84
2022/06/04 07:36:19;;;;;;;;;22.75;22.00;;;;;20.36;65.44;101222.38;5062542;28;45474;-84
2022/06/04 07:38:45;;;;;;;;;27.25;27.00;;;;;20.37;65.90;101226.78;5077169;28;46119;-84
2022/06/04 07:41:32;;;;;;;;;24.00;22.50;;;;;20.36;65.80;101236.63;5052468;28;45293;-83
2022/06/04 07:43:59;;;;;;;;;27.00;26.00;;;;;20.35;66.03;101248.25;5048738;28;45400;-82
2022/06/04 07:46:29;;;;;;;;;27.25;27.25;;;;;20.34;65.85;101245.63;5079904;28;45393;-84
2022/06/04 07:48:57;;;;;;;;;21.00;20.50;;;;;20.28;66.46;101255.59;5067807;28;45433;-82
2022/06/04 07:51:23;;;;;;;;;30.25;27.25;;;;;20.27;66.27;101272.59;5059798;28;46018;-84
2022/06/04 07:53:49;;;;;;;;;30.75;27.00;;;;;20.27;66.04;101266.38;5062584;28;45343;-84
2022/06/04 07:56:17;;;;;;;;;27.50;27.00;;;;;20.25;66.66;101255.72;5048667;28;45556;-84
2022/06/04 07:58:43;;;;;;;;;22.00;21.50;;;;;20.25;66.74;101242.34;5053388;28;47213;-84
2022/06/04 08:01:14;;;;;;;;;27.50;25.50;;;;;20.26;66.49;101243.22;5076661;28;45499;-85
2022/06/04 08:03:43;;;;;;;;;32.75;30.25;;;;;20.24;67.37;101234.41;5070772;28;45442;-85
2022/06/04 08:06:10;;;;;;;;;25.75;23.50;;;;;20.21;66.98;101224.69;5058411;28;45593;-84
2022/06/04 08:08:37;;;;;;;;;30.50;28.75;;;;;20.21;66.96;101218.47;5070912;28;46542;-85
2022/06/04 08:13:54;;;;;;;;;30.25;26.00;;;;;20.20;67.39;101230.09;5079343;28;45342;-84
2022/06/04 08:16:20;;;;;;;;;29.50;26.00;;;;;20.22;67.22;101221.06;5041502;28;45793;-81
2022/06/04 08:18:46;;;;;;;;;30.00;29.00;;;;;20.27;67.29;101218.25;5059334;28;46444;-81
2022/06/04 08:21:12;;;;;;;;;28.00;25.00;;;;;20.32;67.53;101212.75;5073135;28;45606;-80
2022/06/04 08:23:40;;;;;;;;;28.00;28.00;;;;;20.32;67.26;101208.25;5053994;28;45438;-80
2022/06/04 08:26:09;;;;;;;;;32.75;28.75;;;;;20.36;67.53;101228.59;5079525;28;45481;-80
2022/06/04 08:28:35;;;;;;;;;25.25;23.75;;;;;20.39;67.34;101231.16;5061586;28;47395;-83
2022/06/04 08:31:07;;;;;;;;;28.50;27.75;;;;;20.43;67.18;101248.84;5072536;28;45406;-81
2022/06/04 08:33:33;;;;;;;;;31.75;30.50;;;;;20.52;67.55;101249.44;5055526;28;45481;-82
2022/06/04 08:35:59;;;;;;;;;28.00;27.25;;;;;20.60;67.63;101250.06;5079982;28;45386;-82
2022/06/04 08:38:24;;;;;;;;;32.25;29.75;;;;;20.69;67.70;101249.72;5077161;28;46069;-82
2022/06/04 08:40:57;;;;;;;;;29.25;28.75;;;;;20.85;67.44;101249.97;5041723;28;45201;-81
2022/06/04 08:43:44;;;;;;;;;25.75;25.25;;;;;21.00;67.19;101249.41;5054830;28;45378;-82
2022/06/04 08:46:25;;;;;;;;;25.25;23.50;;;;;21.15;66.70;101243.44;5041179;28;45504;-82
2022/06/04 08:48:51;;;;;;;;;29.50;26.75;;;;;21.30;66.38;101241.06;5048027;28;48031;-82
2022/06/04 08:51:28;;;;;;;;;28.75;28.75;;;;;21.41;65.89;101238.00;5075174;28;45549;-82
2022/06/04 08:53:57;;;;;;;;;30.25;30.25;;;;;21.50;66.01;101235.81;5050467;28;45451;-83
2022/06/04 08:59:52;;;;;;;;;27.50;25.50;;;;;21.82;65.63;101235.41;5066425;28;45250;-82
2022/06/04 09:02:25;;;;;;;;;29.00;26.25;;;;;21.96;65.20;101243.72;5041070;28;45429;-82
2022/06/04 09:05:39;;;;;;;;;26.00;25.00;;;;;22.12;64.18;101252.84;5065511;28;45375;-83
2022/06/04 09:08:17;;;;;;;;;25.75;24.75;;;;;22.22;63.84;101254.22;5009572;28;45939;-86
2022/06/04 09:10:50;;;;;;;;;31.25;31.25;;;;;22.33;63.84;101253.75;5058449;28;47589;-86
2022/06/04 09:13:25;;;;;;;;;28.50;24.50;;;;;22.42;63.26;101258.69;5070995;28;45359;-87
2022/06/04 09:15:54;;;;;;;;;24.25;22.25;;;;;22.52;63.06;101269.88;5040365;28;45425;-85
2022/06/04 09:18:33;;;;;;;;;26.50;23.75;;;;;22.64;62.35;101266.66;5040869;28;45419;-85
2022/06/04 09:21:01;;;;;;;;;25.25;23.25;;;;;22.78;62.66;101267.84;5058814;28;46335;-81
2022/06/04 09:23:36;;;;;;;;;28.75;24.00;;;;;22.90;62.07;101273.47;5051613;28;45461;-83
2022/06/04 09:26:29;;;;;;;;;27.75;25.50;;;;;23.01;61.93;101267.63;5064286;28;45407;-84
2022/06/04 09:29:32;;;;;;;;;29.75;26.50;;;;;23.14;61.32;101264.38;5042334;28;45446;-82
2022/06/04 09:32:44;;;;;;;;;25.00;23.25;;;;;23.23;61.09;101256.75;5064206;28;45602;-84
2022/06/04 09:35:13;;;;;;;;;22.25;21.00;;;;;23.33;60.28;101265.22;5040388;28;45450;-83
2022/06/04 09:37:43;;;;;;;;;27.00;24.50;;;;;23.37;60.37;101261.47;5039965;28;45194;-82
2022/06/04 09:40:19;;;;;;;;;25.75;24.50;;;;;23.41;59.75;101251.41;5055646;28;45413;-81
2022/06/04 09:42:44;;;;;;;;;22.75;21.25;;;;;23.45;59.41;101248.50;5069030;28;45522;-82
2022/06/04 09:45:36;;;;;;;;;20.00;18.75;;;;;23.53;59.18;101253.50;5058403;28;45175;-82
2022/06/04 09:48:19;;;;;;;;;20.25;19.75;;;;;23.60;58.84;101240.63;5051502;28;45514;-83
2022/06/04 09:50:53;;;;;;;;;22.50;21.25;;;;;23.71;58.87;101249.94;5065023;28;45540;-82
2022/06/04 09:53:32;;;;;;;;;25.25;23.50;;;;;23.85;58.68;101257.28;5062839;28;47121;-84
2022/06/04 09:56:08;;;;;;;;;19.75;18.25;;;;;23.93;58.15;101256.91;5069868;28;45536;-83
2022/06/04 09:58:40;;;;;;;;;14.50;14.50;;;;;24.02;57.11;101261.81;5052375;28;45400;-83
2022/06/04 10:01:08;;;;;;;;;16.25;16.25;;;;;24.13;57.30;101261.25;5048652;28;45667;-82
2022/06/04 10:03:39;;;;;;;;;20.00;20.00;;;;;24.24;57.22;101258.00;5081077;28;45713;-78
2022/06/04 10:06:16;;;;;;;;;20.25;19.75;;;;;24.35;56.88;101260.97;5064972;28;45501;-83
2022/06/04 10:11:47;;;;;;;;;22.50;21.50;;;;;24.50;56.34;101253.94;5073197;28;45456;-82
2022/06/04 10:14:13;;;;;;;;;25.00;23.00;;;;;24.57;56.50;101258.91;5063036;28;48317;-82
2022/06/04 10:16:44;;;;;;;;;26.50;22.50;;;;;24.63;55.86;101265.78;5071978;28;45415;-79
2022/06/04 10:19:15;;;;;;;;;18.75;18.75;;;;;24.70;55.44;101267.22;5062422;28;45514;-84
2022/06/04 10:21:43;;;;;;;;;21.25;19.25;;;;;24.76;55.58;101249.84;5059625;28;45185;-79
2022/06/04 10:24:31;;;;;;;;;18.00;17.00;;;;;24.85;55.76;101250.19;5052301;28;47968;-83
2022/06/04 10:27:22;;;;;;;;;14.75;14.25;;;;;24.99;54.73;101256.63;5071730;28;45502;-83
2022/06/04 10:29:50;;;;;;;;;15.00;14.75;;;;;25.11;54.21;101255.09;5061578;28;45411;-81
2022/06/04 10:32:52;;;;;;;;;10.75;10.75;;;;;25.21;53.38;101248.25;5064728;28;45457;-84
2022/06/04 10:35:52;;;;;;;;;;;;;;;;;;;;;
2022/06/04 10:38:34;;;;;;;;;15.00;15.00;;;;;25.48;52.68;101243.09;5072150;28;72709;-81
2022/06/04 10:41:19;;;;;;;;;10.25;10.25;;;;;25.63;51.59;101234.09;5072141;28;45446;-82
2022/06/04 10:44:05;;;;;;;;;8.25;7.50;;;;;25.76;49.96;101236.94;5058864;28;45476;-81
2022/06/04 10:46:52;;;;;;;;;9.67;8.33;;;;;25.90;50.05;101236.13;5079875;28;45477;-80
2022/06/04 10:49:38;;;;;;;;;7.00;7.00;;;;;26.15;49.67;101240.94;5069598;28;45457;-82
2022/06/04 10:52:26;;;;;;;;;9.33;9.33;;;;;26.38;48.75;101240.38;5048643;28;45480;-82
2022/06/04 10:55:25;;;;;;;;;8.67;7.00;;;;;26.53;48.31;101233.19;5076784;28;45396;-83
2022/06/04 10:58:12;;;;;;;;;10.00;9.25;;;;;26.70;48.26;101231.25;5050114;28;48290;-81
2022/06/04 11:00:50;;;;;;;;;13.00;12.25;;;;;26.86;48.27;101232.00;5063874;28;45622;-81
2022/06/04 11:03:50;;;;;;;;;10.00;10.00;;;;;27.02;47.24;101227.34;5062306;28;45529;-81
2022/06/04 11:06:19;;;;;;;;;10.33;10.00;;;;;27.05;47.18;101229.84;5057723;28;45648;-82
2022/06/04 11:08:49;;;;;;;;;13.00;12.00;;;;;27.14;47.06;101227.50;5061313;28;47895;-81
2022/06/04 11:11:36;;;;;;;;;;;;;;;;;;;;;
2022/06/04 11:17:01;;;;;;;;;10.67;10.67;;;;;27.51;46.69;101222.41;5067972;28;45597;-82
2022/06/04 11:19:32;;;;;;;;;9.00;9.00;;;;;27.69;46.49;101226.53;5073011;28;45459;-82
2022/06/04 11:22:21;;;;;;;;;11.00;10.33;;;;;27.84;45.75;101219.25;5064740;28;45532;-81
2022/06/04 11:25:02;;;;;;;;;11.00;11.00;;;;;27.88;45.04;101220.75;5070037;28;45539;-80
2022/06/04 11:28:04;;;;;;;;;9.67;8.67;;;;;27.90;45.30;101219.69;5064926;28;45575;-82
2022/06/04 11:30:52;;;;;;;;;12.00;10.75;;;;;27.99;44.83;101209.19;5073763;27;46907;-83
2022/06/04 11:33:17;;;;;;;;;12.75;12.75;;;;;28.04;44.34;101209.75;5057641;28;45490;-82
2022/06/04 11:36:00;;;;;;;;;10.50;10.50;;;;;28.13;44.79;101204.56;5054719;28;45580;-81
2022/06/04 11:38:43;;;;;;;;;10.00;10.00;;;;;28.26;44.03;101201.88;5053427;28;45532;-79
2022/06/04 11:41:22;;;;;;;;;9.67;9.67;;;;;28.34;44.00;101198.63;5055775;28;47289;-83
2022/06/04 11:45:07;;;;;;;;;;;;;;;;;;;;;
2022/06/04 11:47:48;;;;;;;;;;;;;;;;;;;;;
2022/06/04 11:50:36;;;;;;;;;8.00;8.00;;;;;28.77;42.75;101204.53;5054058;28;72673;-83
2022/06/04 11:53:34;;;;;;;;;8.00;7.67;;;;;28.88;42.14;101201.03;5022613;28;46924;-85
2022/06/04 11:56:02;;;;;;;;;9.00;9.00;;;;;28.94;41.90;101192.44;5036171;28;45459;-81
2022/06/04 11:58:33;;;;;;;;;9.33;9.00;;;;;29.01;42.37;101198.28;5040484;28;45366;-80
2022/06/04 12:01:03;;;;;;;;;11.67;10.00;;;;;29.14;42.17;101196.44;5044207;28;45501;-79
2022/06/04 12:04:04;;;;;;;;;10.00;10.00;;;;;29.30;42.22;101198.84;5048658;28;46269;-85
2022/06/04 12:06:39;;;;;;;;;9.33;9.33;;;;;29.47;41.75;101197.56;5043195;28;45501;-83
2022/06/04 12:09:31;;;;;;;;;10.00;7.67;;;;;29.66;41.17;101186.19;5042004;28;45361;-83
2022/06/04 12:12:18;;;;;;;;;8.50;8.00;;;;;29.83;40.74;101187.59;5027464;28;45398;-85
2022/06/04 12:15:16;;;;;;;;;10.67;9.67;;;;;29.97;40.47;101198.25;5048819;28;47669;-85
2022/06/04 12:17:50;;;;;;;;;9.00;9.00;;;;;30.07;40.20;101190.25;5066680;28;45481;-81
2022/06/04 12:26:19;;;;;;;;;11.75;11.75;;;;;30.44;39.64;101187.34;5058795;28;45313;-82
2022/06/04 12:28:45;;;;;;;;;9.50;9.50;;;;;30.57;39.08;101195.38;5039970;28;45490;-81
2022/06/04 12:31:36;;;;;;;;;10.75;10.75;;;;;30.63;39.11;101182.13;5039801;28;45607;-86
2022/06/04 12:37:41;;;;;;;;;11.00;11.00;;;;;30.64;38.77;101188.47;4967780;28;46191;-90
2022/06/04 12:40:40;;;;;;;;;10.25;10.00;;;;;30.54;38.47;101191.06;4956486;28;45655;-86
2022/06/04 12:43:23;;;;;;;;;11.50;11.50;;;;;30.44;38.42;101181.91;5026104;28;45521;-86
2022/06/04 12:45:52;;;;;;;;;10.00;10.00;;;;;30.49;39.01;101175.09;5050151;28;46129;-86
2022/06/04 12:48:33;;;;;;;;;11.25;11.25;;;;;30.63;38.35;101173.97;5055162;28;45475;-84
2022/06/04 12:51:02;;;;;;;;;10.00;10.00;;;;;30.71;38.44;101167.91;5048788;28;45519;-83
2022/06/04 12:53:32;;;;;;;;;10.25;9.50;;;;;30.78;38.00;101172.72;5044110;28;45387;-86
2022/06/04 12:56:02;;;;;;;;;11.75;11.75;;;;;30.89;37.92;101163.72;5041360;28;45529;-84
2022/06/04 12:58:50;;;;;;;;;10.67;9.00;;;;;31.04;38.14;101163.47;5038502;28;47853;-86
2022/06/04 13:01:18;;;;;;;;;10.00;9.50;;;;;31.24;37.85;101159.03;5047131;28;45678;-86
2022/06/04 13:04:05;;;;;;;;;12.00;10.00;;;;;31.42;37.27;101146.63;5043447;28;45472;-83
2022/06/04 13:06:35;;;;;;;;;10.75;8.00;;;;;31.50;36.99;101138.66;5035293;28;45485;-85
2022/06/04 13:09:22;;;;;;;;;9.00;9.00;;;;;31.53;36.86;101127.50;5043773;28;48304;-82
2022/06/04 13:12:06;;;;;;;;;9.67;8.33;;;;;31.49;36.81;101130.63;5053788;28;45530;-81
2022/06/04 13:14:40;;;;;;;;;8.25;8.25;;;;;31.38;36.42;101113.38;5044500;28;45763;-81
2022/06/04 13:17:28;;;;;;;;;11.75;11.75;;;;;31.22;36.59;101110.19;5038638;28;45690;-84
2022/06/04 13:20:15;;;;;;;;;10.00;10.00;;;;;31.09;36.72;101102.22;5055200;28;45577;-82
2022/06/04 13:23:04;;;;;;;;;10.75;9.50;;;;;31.01;36.74;101102.03;5066105;28;45623;-79
2022/06/04 13:25:36;;;;;;;;;11.75;10.25;;;;;30.86;36.70;101103.31;5064860;28;45538;-79
2022/06/04 13:28:05;;;;;;;;;12.00;12.00;;;;;30.73;36.99;101097.97;5064831;28;45521;-79
2022/06/04 13:30:36;;;;;;;;;11.00;11.00;;;;;30.58;37.08;101091.97;5045158;28;47307;-79
2022/06/04 13:33:06;;;;;;;;;10.25;8.50;;;;;30.46;37.55;101082.97;5062757;28;45424;-79
2022/06/04 13:35:37;;;;;;;;;10.00;10.00;;;;;30.37;37.36;101078.31;5059636;28;45482;-79
2022/06/04 13:38:08;;;;;;;;;8.50;8.50;;;;;30.25;37.62;101072.00;5067290;28;45510;-79
2022/06/04 13:40:34;;;;;;;;;9.75;9.50;;;;;30.17;37.54;101076.31;5038654;28;46756;-79
2022/06/04 13:43:01;;;;;;;;;12.00;11.50;;;;;30.04;38.01;101066.41;5033654;28;45337;-79
2022/06/04 13:45:40;;;;;;;;;10.33;10.00;;;;;29.89;38.02;101062.25;5064645;28;45492;-79
2022/06/04 13:48:24;;;;;;;;;11.00;10.67;;;;;29.72;38.39;101077.16;5057945;28;45627;-79
2022/06/04 13:50:56;;;;;;;;;9.00;8.33;;;;;29.60;38.14;101095.25;5057001;28;47067;-79
2022/06/04 13:53:26;;;;;;;;;6.67;5.33;;;;;29.45;38.20;101091.00;5040802;28;45474;-79